sensor_id;sensor_type;location;lat;lon;timestamp;temperature;humidity
12819;DHT22;6474;53.474;9.894;2022-12-24T00:00:16;5.90;93.00
12819;DHT22;6474;53.474;9.894;2022-12-24T00:02:44;6.00;93.10
12819;DHT22;6474;53.474;9.894;2022-12-24T00:05:12;6.00;93.10
12819;DHT22;6474;53.474;9.894;2022-12-24T00:07:40;5.90;93.00
12819;DHT22;6474;53.474;9.894;2022-12-24T00:10:10;6.00;93.10
12819;DHT22;6474;53.474;9.894;2022-12-24T00:12:38;5.90;93.00
12819;DHT22;6474;53.474;9.894;2022-12-24T00:15:07;5.90;93.00
12819;DHT22;6474;53.474;9.894;2022-12-24T00:17:35;6.00;93.10
12819;DHT22;6474;53.474;9.894;2022-12-24T00:20:03;6.00;93.10
12819;DHT22;6474;53.474;9.894;2022-12-24T00:22:31;6.00;93.10
12819;DHT22;6474;53.474;9.894;2022-12-24T00:24:59;6.00;93.10
12819;DHT22;6474;53.474;9.894;2022-12-24T00:27:28;6.00;93.10
12819;DHT22;6474;53.474;9.894;2022-12-24T00:29:56;6.00;93.10
12819;DHT22;6474;53.474;9.894;2022-12-24T00:32:24;5.90;93.00
12819;DHT22;6474;53.474;9.894;2022-12-24T00:34:51;6.00;93.10
12819;DHT22;6474;53.474;9.894;2022-12-24T00:37:19;6.00;93.10
12819;DHT22;6474;53.474;9.894;2022-12-24T00:39:47;6.00;93.10
12819;DHT22;6474;53.474;9.894;2022-12-24T00:42:15;6.00;93.10
12819;DHT22;6474;53.474;9.894;2022-12-24T00:44:44;6.00;93.10
12819;DHT22;6474;53.474;9.894;2022-12-24T00:47:12;6.00;93.10
12819;DHT22;6474;53.474;9.894;2022-12-24T00:49:39;5.90;93.00
12819;DHT22;6474;53.474;9.894;2022-12-24T00:52:07;5.90;93.00
12819;DHT22;6474;53.474;9.894;2022-12-24T00:54:35;6.00;93.10
12819;DHT22;6474;53.474;9.894;2022-12-24T00:57:03;6.00;93.10
12819;DHT22;6474;53.474;9.894;2022-12-24T00:59:30;5.90;93.00
12819;DHT22;6474;53.474;9.894;2022-12-24T01:01:59;5.90;93.00
12819;DHT22;6474;53.474;9.894;2022-12-24T01:04:27;5.90;93.00
12819;DHT22;6474;53.474;9.894;2022-12-24T01:07:13;5.90;93.00
12819;DHT22;6474;53.474;9.894;2022-12-24T01:09:40;5.90;93.00
12819;DHT22;6474;53.474;9.894;2022-12-24T01:12:08;5.90;93.00
12819;DHT22;6474;53.474;9.894;2022-12-24T01:14:36;5.90;93.00
12819;DHT22;6474;53.474;9.894;2022-12-24T01:17:06;5.90;93.00
12819;DHT22;6474;53.474;9.894;2022-12-24T01:19:33;5.90;93.00
12819;DHT22;6474;53.474;9.894;2022-12-24T01:22:01;5.90;93.00
12819;DHT22;6474;53.474;9.894;2022-12-24T01:24:29;5.90;93.30
12819;DHT22;6474;53.474;9.894;2022-12-24T01:26:57;5.90;93.00
12819;DHT22;6474;53.474;9.894;2022-12-24T01:29:25;5.90;93.00
12819;DHT22;6474;53.474;9.894;2022-12-24T01:31:52;5.90;93.00
12819;DHT22;6474;53.474;9.894;2022-12-24T01:34:21;5.90;93.00
12819;DHT22;6474;53.474;9.894;2022-12-24T01:36:49;5.80;93.00
12819;DHT22;6474;53.474;9.894;2022-12-24T01:39:17;5.80;93.00
12819;DHT22;6474;53.474;9.894;2022-12-24T01:41:45;5.80;93.00
12819;DHT22;6474;53.474;9.894;2022-12-24T01:44:32;5.80;93.00
12819;DHT22;6474;53.474;9.894;2022-12-24T01:47:07;5.80;93.00
12819;DHT22;6474;53.474;9.894;2022-12-24T01:49:39;5.80;93.00
12819;DHT22;6474;53.474;9.894;2022-12-24T01:52:10;5.80;93.00
12819;DHT22;6474;53.474;9.894;2022-12-24T01:54:41;5.80;93.00
12819;DHT22;6474;53.474;9.894;2022-12-24T01:57:15;5.80;93.00
12819;DHT22;6474;53.474;9.894;2022-12-24T01:59:48;5.80;93.00
12819;DHT22;6474;53.474;9.894;2022-12-24T02:02:18;5.80;93.00
12819;DHT22;6474;53.474;9.894;2022-12-24T02:04:51;5.80;93.00
12819;DHT22;6474;53.474;9.894;2022-12-24T02:07:21;5.80;93.00
12819;DHT22;6474;53.474;9.894;2022-12-24T02:09:52;5.80;93.00
12819;DHT22;6474;53.474;9.894;2022-12-24T02:12:22;5.80;93.00
12819;DHT22;6474;53.474;9.894;2022-12-24T02:14:51;5.80;93.00
12819;DHT22;6474;53.474;9.894;2022-12-24T02:17:25;5.80;93.00
12819;DHT22;6474;53.474;9.894;2022-12-24T02:20:23;5.80;93.00
12819;DHT22;6474;53.474;9.894;2022-12-24T02:23:18;5.80;93.00
12819;DHT22;6474;53.474;9.894;2022-12-24T02:26:06;5.80;93.00
12819;DHT22;6474;53.474;9.894;2022-12-24T02:28:51;5.80;93.00
12819;DHT22;6474;53.474;9.894;2022-12-24T02:31:28;5.80;93.00
12819;DHT22;6474;53.474;9.894;2022-12-24T02:34:03;5.80;93.00
12819;DHT22;6474;53.474;9.894;2022-12-24T02:36:35;5.80;93.00
12819;DHT22;6474;53.474;9.894;2022-12-24T02:39:07;5.80;93.00
12819;DHT22;6474;53.474;9.894;2022-12-24T02:41:39;5.70;93.00
12819;DHT22;6474;53.474;9.894;2022-12-24T02:44:25;5.70;93.00
12819;DHT22;6474;53.474;9.894;2022-12-24T02:46:56;5.70;93.00
12819;DHT22;6474;53.474;9.894;2022-12-24T02:49:25;5.80;93.00
12819;DHT22;6474;53.474;9.894;2022-12-24T02:51:53;5.70;92.90
12819;DHT22;6474;53.474;9.894;2022-12-24T02:54:21;5.70;93.00
12819;DHT22;6474;53.474;9.894;2022-12-24T02:56:59;5.70;93.00
12819;DHT22;6474;53.474;9.894;2022-12-24T02:59:56;5.70;93.00
12819;DHT22;6474;53.474;9.894;2022-12-24T03:02:35;5.70;93.00
12819;DHT22;6474;53.474;9.894;2022-12-24T03:05:09;5.70;93.00
12819;DHT22;6474;53.474;9.894;2022-12-24T03:07:44;5.70;93.00
12819;DHT22;6474;53.474;9.894;2022-12-24T03:10:18;5.70;93.00
12819;DHT22;6474;53.474;9.894;2022-12-24T03:12:49;5.70;93.00
12819;DHT22;6474;53.474;9.894;2022-12-24T03:15:21;5.70;93.00
12819;DHT22;6474;53.474;9.894;2022-12-24T03:17:53;5.70;93.00
12819;DHT22;6474;53.474;9.894;2022-12-24T03:20:26;5.70;93.00
12819;DHT22;6474;53.474;9.894;2022-12-24T03:22:57;5.80;93.10
12819;DHT22;6474;53.474;9.894;2022-12-24T03:25:25;5.70;93.00
12819;DHT22;6474;53.474;9.894;2022-12-24T03:27:55;5.70;93.00
12819;DHT22;6474;53.474;9.894;2022-12-24T03:30:25;5.70;93.00
12819;DHT22;6474;53.474;9.894;2022-12-24T03:32:54;5.70;93.00
12819;DHT22;6474;53.474;9.894;2022-12-24T03:35:22;5.70;93.00
12819;DHT22;6474;53.474;9.894;2022-12-24T03:37:50;5.70;93.00
12819;DHT22;6474;53.474;9.894;2022-12-24T03:40:18;5.70;93.00
12819;DHT22;6474;53.474;9.894;2022-12-24T03:42:45;5.70;93.00
12819;DHT22;6474;53.474;9.894;2022-12-24T03:45:13;5.70;93.00
12819;DHT22;6474;53.474;9.894;2022-12-24T03:47:41;5.70;93.00
12819;DHT22;6474;53.474;9.894;2022-12-24T03:50:10;5.70;93.00
12819;DHT22;6474;53.474;9.894;2022-12-24T03:52:38;5.70;93.00
12819;DHT22;6474;53.474;9.894;2022-12-24T03:55:06;5.70;93.00
12819;DHT22;6474;53.474;9.894;2022-12-24T03:57:34;5.70;93.00
12819;DHT22;6474;53.474;9.894;2022-12-24T04:00:02;5.70;93.00
12819;DHT22;6474;53.474;9.894;2022-12-24T04:02:30;5.70;93.00
12819;DHT22;6474;53.474;9.894;2022-12-24T04:04:58;5.70;93.00
12819;DHT22;6474;53.474;9.894;2022-12-24T04:07:27;5.70;93.00
12819;DHT22;6474;53.474;9.894;2022-12-24T04:09:55;5.70;93.00
12819;DHT22;6474;53.474;9.894;2022-12-24T04:12:23;5.70;93.00
12819;DHT22;6474;53.474;9.894;2022-12-24T04:14:51;5.70;93.00
12819;DHT22;6474;53.474;9.894;2022-12-24T04:17:18;5.70;93.00
12819;DHT22;6474;53.474;9.894;2022-12-24T04:19:46;5.70;93.00
12819;DHT22;6474;53.474;9.894;2022-12-24T04:22:14;5.70;93.00
12819;DHT22;6474;53.474;9.894;2022-12-24T04:24:43;5.70;93.00
12819;DHT22;6474;53.474;9.894;2022-12-24T04:27:12;5.70;93.00
12819;DHT22;6474;53.474;9.894;2022-12-24T04:29:40;5.70;93.00
12819;DHT22;6474;53.474;9.894;2022-12-24T04:32:09;5.60;93.00
12819;DHT22;6474;53.474;9.894;2022-12-24T04:34:37;5.60;93.00
12819;DHT22;6474;53.474;9.894;2022-12-24T04:37:04;5.60;93.00
12819;DHT22;6474;53.474;9.894;2022-12-24T04:39:32;5.60;93.00
12819;DHT22;6474;53.474;9.894;2022-12-24T04:42:01;5.60;93.00
12819;DHT22;6474;53.474;9.894;2022-12-24T04:44:29;5.60;93.00
12819;DHT22;6474;53.474;9.894;2022-12-24T04:46:57;5.60;93.00
12819;DHT22;6474;53.474;9.894;2022-12-24T04:49:25;5.60;93.00
12819;DHT22;6474;53.474;9.894;2022-12-24T04:51:52;5.60;93.00
12819;DHT22;6474;53.474;9.894;2022-12-24T04:54:20;5.60;93.00
12819;DHT22;6474;53.474;9.894;2022-12-24T04:56:48;5.50;93.00
12819;DHT22;6474;53.474;9.894;2022-12-24T04:59:17;5.60;93.00
12819;DHT22;6474;53.474;9.894;2022-12-24T05:01:45;5.60;93.00
12819;DHT22;6474;53.474;9.894;2022-12-24T05:04:13;5.60;93.00
12819;DHT22;6474;53.474;9.894;2022-12-24T05:06:41;5.60;93.00
12819;DHT22;6474;53.474;9.894;2022-12-24T05:09:08;5.60;93.00
12819;DHT22;6474;53.474;9.894;2022-12-24T05:11:36;5.60;93.00
12819;DHT22;6474;53.474;9.894;2022-12-24T05:14:04;5.50;93.00
12819;DHT22;6474;53.474;9.894;2022-12-24T05:16:33;5.60;93.00
12819;DHT22;6474;53.474;9.894;2022-12-24T05:19:01;5.60;93.00
12819;DHT22;6474;53.474;9.894;2022-12-24T05:21:29;5.60;93.00
12819;DHT22;6474;53.474;9.894;2022-12-24T05:23:57;5.60;93.00
12819;DHT22;6474;53.474;9.894;2022-12-24T05:26:44;5.50;93.00
12819;DHT22;6474;53.474;9.894;2022-12-24T05:29:13;5.50;93.00
12819;DHT22;6474;53.474;9.894;2022-12-24T05:31:50;5.60;93.00
12819;DHT22;6474;53.474;9.894;2022-12-24T05:34:18;5.60;93.10
12819;DHT22;6474;53.474;9.894;2022-12-24T05:36:46;5.60;93.10
12819;DHT22;6474;53.474;9.894;2022-12-24T05:39:15;5.60;93.10
12819;DHT22;6474;53.474;9.894;2022-12-24T05:41:44;5.60;93.00
12819;DHT22;6474;53.474;9.894;2022-12-24T05:44:13;5.60;93.00
12819;DHT22;6474;53.474;9.894;2022-12-24T05:46:42;5.60;93.00
12819;DHT22;6474;53.474;9.894;2022-12-24T05:49:12;5.60;93.00
12819;DHT22;6474;53.474;9.894;2022-12-24T05:51:40;5.60;93.00
12819;DHT22;6474;53.474;9.894;2022-12-24T05:54:08;5.60;93.00
12819;DHT22;6474;53.474;9.894;2022-12-24T05:56:35;5.60;93.00
12819;DHT22;6474;53.474;9.894;2022-12-24T05:59:03;5.60;93.00
12819;DHT22;6474;53.474;9.894;2022-12-24T06:01:31;5.60;93.00
12819;DHT22;6474;53.474;9.894;2022-12-24T06:03:59;5.60;93.00
12819;DHT22;6474;53.474;9.894;2022-12-24T06:06:28;5.50;93.00
12819;DHT22;6474;53.474;9.894;2022-12-24T06:08:56;5.60;93.10
12819;DHT22;6474;53.474;9.894;2022-12-24T06:11:26;5.50;93.00
12819;DHT22;6474;53.474;9.894;2022-12-24T06:13:54;5.60;93.00
12819;DHT22;6474;53.474;9.894;2022-12-24T06:16:24;5.60;93.40
12819;DHT22;6474;53.474;9.894;2022-12-24T06:18:53;5.60;93.10
12819;DHT22;6474;53.474;9.894;2022-12-24T06:21:21;5.50;93.00
12819;DHT22;6474;53.474;9.894;2022-12-24T06:23:51;5.50;93.00
12819;DHT22;6474;53.474;9.894;2022-12-24T06:26:21;5.50;93.00
12819;DHT22;6474;53.474;9.894;2022-12-24T06:28:49;5.50;93.00
12819;DHT22;6474;53.474;9.894;2022-12-24T06:31:19;5.50;93.00
12819;DHT22;6474;53.474;9.894;2022-12-24T06:33:48;5.50;93.00
12819;DHT22;6474;53.474;9.894;2022-12-24T06:36:17;5.50;93.00
12819;DHT22;6474;53.474;9.894;2022-12-24T06:38:47;5.50;93.00
12819;DHT22;6474;53.474;9.894;2022-12-24T06:41:16;5.50;93.00
12819;DHT22;6474;53.474;9.894;2022-12-24T06:43:45;5.50;93.00
12819;DHT22;6474;53.474;9.894;2022-12-24T06:46:14;5.50;93.00
12819;DHT22;6474;53.474;9.894;2022-12-24T06:48:42;5.50;93.00
12819;DHT22;6474;53.474;9.894;2022-12-24T06:51:11;5.50;93.30
12819;DHT22;6474;53.474;9.894;2022-12-24T06:53:39;5.50;93.00
12819;DHT22;6474;53.474;9.894;2022-12-24T06:56:09;5.50;93.00
12819;DHT22;6474;53.474;9.894;2022-12-24T06:58:39;5.50;93.00
12819;DHT22;6474;53.474;9.894;2022-12-24T07:01:10;5.50;93.00
12819;DHT22;6474;53.474;9.894;2022-12-24T07:03:38;5.50;93.00
12819;DHT22;6474;53.474;9.894;2022-12-24T07:06:07;5.50;93.00
12819;DHT22;6474;53.474;9.894;2022-12-24T07:08:37;5.50;93.00
12819;DHT22;6474;53.474;9.894;2022-12-24T07:11:07;5.50;93.00
12819;DHT22;6474;53.474;9.894;2022-12-24T07:13:35;5.50;93.00
12819;DHT22;6474;53.474;9.894;2022-12-24T07:16:04;5.50;93.00
12819;DHT22;6474;53.474;9.894;2022-12-24T07:18:35;5.50;93.00
12819;DHT22;6474;53.474;9.894;2022-12-24T07:21:05;5.50;93.10
12819;DHT22;6474;53.474;9.894;2022-12-24T07:23:33;5.50;93.00
12819;DHT22;6474;53.474;9.894;2022-12-24T07:26:05;5.50;93.10
12819;DHT22;6474;53.474;9.894;2022-12-24T07:28:33;5.50;93.00
12819;DHT22;6474;53.474;9.894;2022-12-24T07:31:01;5.50;93.10
12819;DHT22;6474;53.474;9.894;2022-12-24T07:33:31;5.50;93.10
12819;DHT22;6474;53.474;9.894;2022-12-24T07:36:00;5.50;93.10
12819;DHT22;6474;53.474;9.894;2022-12-24T07:38:29;5.50;93.10
12819;DHT22;6474;53.474;9.894;2022-12-24T07:40:59;5.50;93.40
12819;DHT22;6474;53.474;9.894;2022-12-24T07:43:32;5.50;93.00
12819;DHT22;6474;53.474;9.894;2022-12-24T07:46:01;5.50;93.10
12819;DHT22;6474;53.474;9.894;2022-12-24T07:48:31;5.50;93.00
12819;DHT22;6474;53.474;9.894;2022-12-24T07:50:59;5.50;93.00
12819;DHT22;6474;53.474;9.894;2022-12-24T07:53:28;5.50;93.00
12819;DHT22;6474;53.474;9.894;2022-12-24T07:55:56;5.50;93.00
12819;DHT22;6474;53.474;9.894;2022-12-24T07:58:24;5.50;93.00
12819;DHT22;6474;53.474;9.894;2022-12-24T08:00:56;5.50;93.00
12819;DHT22;6474;53.474;9.894;2022-12-24T08:03:24;5.60;93.10
12819;DHT22;6474;53.474;9.894;2022-12-24T08:05:54;5.60;93.10
12819;DHT22;6474;53.474;9.894;2022-12-24T08:08:23;5.60;93.10
12819;DHT22;6474;53.474;9.894;2022-12-24T08:10:51;5.60;93.10
12819;DHT22;6474;53.474;9.894;2022-12-24T08:13:19;5.60;93.10
12819;DHT22;6474;53.474;9.894;2022-12-24T08:15:46;5.60;93.10
12819;DHT22;6474;53.474;9.894;2022-12-24T08:18:14;5.60;93.10
12819;DHT22;6474;53.474;9.894;2022-12-24T08:20:42;5.60;93.10
12819;DHT22;6474;53.474;9.894;2022-12-24T08:23:11;5.60;93.10
12819;DHT22;6474;53.474;9.894;2022-12-24T08:25:41;5.60;93.10
12819;DHT22;6474;53.474;9.894;2022-12-24T08:28:10;5.60;93.10
12819;DHT22;6474;53.474;9.894;2022-12-24T08:30:38;5.60;93.10
12819;DHT22;6474;53.474;9.894;2022-12-24T08:33:06;5.70;93.20
12819;DHT22;6474;53.474;9.894;2022-12-24T08:35:34;5.70;93.20
12819;DHT22;6474;53.474;9.894;2022-12-24T08:38:02;5.70;93.20
12819;DHT22;6474;53.474;9.894;2022-12-24T08:40:31;5.70;93.20
12819;DHT22;6474;53.474;9.894;2022-12-24T08:43:00;5.70;93.10
12819;DHT22;6474;53.474;9.894;2022-12-24T08:45:28;5.70;93.10
12819;DHT22;6474;53.474;9.894;2022-12-24T08:48:06;5.70;93.10
12819;DHT22;6474;53.474;9.894;2022-12-24T08:50:34;5.70;93.10
12819;DHT22;6474;53.474;9.894;2022-12-24T08:53:02;5.70;93.10
12819;DHT22;6474;53.474;9.894;2022-12-24T08:55:31;5.70;93.20
12819;DHT22;6474;53.474;9.894;2022-12-24T08:57:59;5.70;93.10
12819;DHT22;6474;53.474;9.894;2022-12-24T09:00:28;5.80;93.20
12819;DHT22;6474;53.474;9.894;2022-12-24T09:02:56;5.80;93.20
12819;DHT22;6474;53.474;9.894;2022-12-24T09:05:24;5.80;93.20
12819;DHT22;6474;53.474;9.894;2022-12-24T09:07:52;5.80;93.20
12819;DHT22;6474;53.474;9.894;2022-12-24T09:10:20;5.80;93.20
12819;DHT22;6474;53.474;9.894;2022-12-24T09:12:49;5.90;93.30
12819;DHT22;6474;53.474;9.894;2022-12-24T09:15:17;5.90;93.30
12819;DHT22;6474;53.474;9.894;2022-12-24T09:17:45;5.90;93.20
12819;DHT22;6474;53.474;9.894;2022-12-24T09:20:13;5.90;93.20
12819;DHT22;6474;53.474;9.894;2022-12-24T09:22:41;5.90;93.30
12819;DHT22;6474;53.474;9.894;2022-12-24T09:25:09;6.00;93.30
12819;DHT22;6474;53.474;9.894;2022-12-24T09:27:37;5.90;93.20
12819;DHT22;6474;53.474;9.894;2022-12-24T09:30:07;5.90;93.20
12819;DHT22;6474;53.474;9.894;2022-12-24T09:32:35;6.00;93.30
12819;DHT22;6474;53.474;9.894;2022-12-24T09:35:04;6.00;93.20
12819;DHT22;6474;53.474;9.894;2022-12-24T09:37:32;6.00;93.30
12819;DHT22;6474;53.474;9.894;2022-12-24T09:40:00;6.00;93.20
12819;DHT22;6474;53.474;9.894;2022-12-24T09:42:40;6.00;93.20
12819;DHT22;6474;53.474;9.894;2022-12-24T09:45:15;6.00;93.30
12819;DHT22;6474;53.474;9.894;2022-12-24T09:47:47;6.00;93.20
12819;DHT22;6474;53.474;9.894;2022-12-24T09:50:35;6.00;93.20
12819;DHT22;6474;53.474;9.894;2022-12-24T09:53:11;6.00;93.30
12819;DHT22;6474;53.474;9.894;2022-12-24T09:55:45;6.00;93.30
12819;DHT22;6474;53.474;9.894;2022-12-24T09:58:19;6.10;93.30
12819;DHT22;6474;53.474;9.894;2022-12-24T10:00:50;6.10;93.30
12819;DHT22;6474;53.474;9.894;2022-12-24T10:03:19;6.10;93.20
12819;DHT22;6474;53.474;9.894;2022-12-24T10:05:54;6.10;93.10
12819;DHT22;6474;53.474;9.894;2022-12-24T10:08:30;6.10;93.10
12819;DHT22;6474;53.474;9.894;2022-12-24T10:11:09;6.10;93.10
12819;DHT22;6474;53.474;9.894;2022-12-24T10:13:50;6.10;93.20
12819;DHT22;6474;53.474;9.894;2022-12-24T10:16:25;6.10;93.20
12819;DHT22;6474;53.474;9.894;2022-12-24T10:19:00;6.20;93.30
12819;DHT22;6474;53.474;9.894;2022-12-24T10:21:38;6.20;93.30
12819;DHT22;6474;53.474;9.894;2022-12-24T10:24:13;6.20;93.30
12819;DHT22;6474;53.474;9.894;2022-12-24T10:26:45;6.20;93.30
12819;DHT22;6474;53.474;9.894;2022-12-24T10:29:16;6.20;93.20
12819;DHT22;6474;53.474;9.894;2022-12-24T10:31:51;6.20;93.20
12819;DHT22;6474;53.474;9.894;2022-12-24T10:34:22;6.20;93.30
12819;DHT22;6474;53.474;9.894;2022-12-24T10:36:50;6.20;93.30
12819;DHT22;6474;53.474;9.894;2022-12-24T10:39:21;6.20;93.20
12819;DHT22;6474;53.474;9.894;2022-12-24T10:41:52;6.20;93.30
12819;DHT22;6474;53.474;9.894;2022-12-24T10:44:23;6.20;93.30
12819;DHT22;6474;53.474;9.894;2022-12-24T10:46:53;6.20;93.30
12819;DHT22;6474;53.474;9.894;2022-12-24T10:49:29;6.30;93.40
12819;DHT22;6474;53.474;9.894;2022-12-24T10:52:02;6.30;93.40
12819;DHT22;6474;53.474;9.894;2022-12-24T10:54:31;6.30;93.40
12819;DHT22;6474;53.474;9.894;2022-12-24T10:57:05;6.30;93.40
12819;DHT22;6474;53.474;9.894;2022-12-24T10:59:50;6.40;93.40
12819;DHT22;6474;53.474;9.894;2022-12-24T11:02:29;6.40;93.40
12819;DHT22;6474;53.474;9.894;2022-12-24T11:04:58;6.40;93.40
12819;DHT22;6474;53.474;9.894;2022-12-24T11:07:28;6.40;93.40
12819;DHT22;6474;53.474;9.894;2022-12-24T11:09:57;6.50;93.50
12819;DHT22;6474;53.474;9.894;2022-12-24T11:12:28;6.50;93.50
12819;DHT22;6474;53.474;9.894;2022-12-24T11:15:04;6.50;93.50
12819;DHT22;6474;53.474;9.894;2022-12-24T11:17:34;6.60;93.50
12819;DHT22;6474;53.474;9.894;2022-12-24T11:20:02;6.70;93.60
12819;DHT22;6474;53.474;9.894;2022-12-24T11:22:32;6.70;93.60
12819;DHT22;6474;53.474;9.894;2022-12-24T11:25:03;6.80;93.70
12819;DHT22;6474;53.474;9.894;2022-12-24T11:27:39;6.90;93.70
12819;DHT22;6474;53.474;9.894;2022-12-24T11:33:20;7.10;93.90
12819;DHT22;6474;53.474;9.894;2022-12-24T11:35:52;7.10;93.90
12819;DHT22;6474;53.474;9.894;2022-12-24T11:38:22;7.20;93.90
12819;DHT22;6474;53.474;9.894;2022-12-24T11:40:58;7.30;93.90
12819;DHT22;6474;53.474;9.894;2022-12-24T11:43:32;7.30;93.80
12819;DHT22;6474;53.474;9.894;2022-12-24T11:46:19;7.40;93.80
12819;DHT22;6474;53.474;9.894;2022-12-24T11:49:04;7.40;93.80
12819;DHT22;6474;53.474;9.894;2022-12-24T11:51:34;7.50;93.80
12819;DHT22;6474;53.474;9.894;2022-12-24T11:54:07;7.50;93.80
12819;DHT22;6474;53.474;9.894;2022-12-24T11:56:43;7.60;93.80
12819;DHT22;6474;53.474;9.894;2022-12-24T11:59:16;7.60;93.80
12819;DHT22;6474;53.474;9.894;2022-12-24T12:01:53;7.60;93.80
12819;DHT22;6474;53.474;9.894;2022-12-24T12:04:25;7.60;93.80
12819;DHT22;6474;53.474;9.894;2022-12-24T12:06:57;7.60;93.80
12819;DHT22;6474;53.474;9.894;2022-12-24T12:09:28;7.70;93.80
12819;DHT22;6474;53.474;9.894;2022-12-24T12:12:03;7.70;93.90
12819;DHT22;6474;53.474;9.894;2022-12-24T12:14:37;7.70;93.90
12819;DHT22;6474;53.474;9.894;2022-12-24T12:17:13;7.70;93.80
12819;DHT22;6474;53.474;9.894;2022-12-24T12:19:49;7.70;93.80
12819;DHT22;6474;53.474;9.894;2022-12-24T12:22:27;7.70;93.70
12819;DHT22;6474;53.474;9.894;2022-12-24T12:24:58;7.60;93.60
12819;DHT22;6474;53.474;9.894;2022-12-24T12:27:30;7.60;93.50
12819;DHT22;6474;53.474;9.894;2022-12-24T12:30:01;7.60;93.50
12819;DHT22;6474;53.474;9.894;2022-12-24T12:32:37;7.50;93.40
12819;DHT22;6474;53.474;9.894;2022-12-24T12:35:17;7.50;93.50
12819;DHT22;6474;53.474;9.894;2022-12-24T12:37:52;7.50;93.60
12819;DHT22;6474;53.474;9.894;2022-12-24T12:40:31;7.50;93.60
12819;DHT22;6474;53.474;9.894;2022-12-24T12:43:07;7.50;93.60
12819;DHT22;6474;53.474;9.894;2022-12-24T12:45:44;7.60;93.70
12819;DHT22;6474;53.474;9.894;2022-12-24T12:48:43;7.60;93.80
12819;DHT22;6474;53.474;9.894;2022-12-24T12:51:21;7.70;93.80
12819;DHT22;6474;53.474;9.894;2022-12-24T12:54:05;7.70;93.90
12819;DHT22;6474;53.474;9.894;2022-12-24T12:56:36;7.70;93.80
12819;DHT22;6474;53.474;9.894;2022-12-24T12:59:11;7.80;93.90
12819;DHT22;6474;53.474;9.894;2022-12-24T13:01:44;7.80;94.20
12819;DHT22;6474;53.474;9.894;2022-12-24T13:04:54;7.90;93.90
12819;DHT22;6474;53.474;9.894;2022-12-24T13:07:43;8.00;93.80
12819;DHT22;6474;53.474;9.894;2022-12-24T13:10:40;8.00;93.60
12819;DHT22;6474;53.474;9.894;2022-12-24T13:13:31;8.00;93.50
12819;DHT22;6474;53.474;9.894;2022-12-24T13:16:12;7.90;93.40
12819;DHT22;6474;53.474;9.894;2022-12-24T13:18:48;7.90;93.40
12819;DHT22;6474;53.474;9.894;2022-12-24T13:21:20;7.90;93.40
12819;DHT22;6474;53.474;9.894;2022-12-24T13:23:50;7.90;93.40
12819;DHT22;6474;53.474;9.894;2022-12-24T13:26:17;7.90;93.40
12819;DHT22;6474;53.474;9.894;2022-12-24T13:28:45;7.80;93.30
12819;DHT22;6474;53.474;9.894;2022-12-24T13:31:31;7.80;93.30
12819;DHT22;6474;53.474;9.894;2022-12-24T13:34:01;7.80;93.30
12819;DHT22;6474;53.474;9.894;2022-12-24T13:37:02;7.70;93.30
12819;DHT22;6474;53.474;9.894;2022-12-24T13:40:10;7.70;93.30
12819;DHT22;6474;53.474;9.894;2022-12-24T13:42:49;7.70;93.50
12819;DHT22;6474;53.474;9.894;2022-12-24T13:45:41;7.80;93.50
12819;DHT22;6474;53.474;9.894;2022-12-24T13:48:27;7.80;93.50
12819;DHT22;6474;53.474;9.894;2022-12-24T13:50:58;7.80;93.50
12819;DHT22;6474;53.474;9.894;2022-12-24T13:53:29;7.80;93.50
12819;DHT22;6474;53.474;9.894;2022-12-24T13:56:04;7.80;93.60
12819;DHT22;6474;53.474;9.894;2022-12-24T13:58:36;7.80;93.60
12819;DHT22;6474;53.474;9.894;2022-12-24T14:01:07;7.90;93.70
12819;DHT22;6474;53.474;9.894;2022-12-24T14:03:40;7.90;93.60
12819;DHT22;6474;53.474;9.894;2022-12-24T14:06:10;7.90;93.60
12819;DHT22;6474;53.474;9.894;2022-12-24T14:08:43;7.90;93.60
12819;DHT22;6474;53.474;9.894;2022-12-24T14:11:15;7.90;93.60
12819;DHT22;6474;53.474;9.894;2022-12-24T14:14:25;7.90;93.70
12819;DHT22;6474;53.474;9.894;2022-12-24T14:16:56;7.90;93.70
12819;DHT22;6474;53.474;9.894;2022-12-24T14:19:27;7.90;93.70
12819;DHT22;6474;53.474;9.894;2022-12-24T14:22:11;7.90;93.60
12819;DHT22;6474;53.474;9.894;2022-12-24T14:24:49;7.90;93.60
12819;DHT22;6474;53.474;9.894;2022-12-24T14:27:24;7.90;93.90
12819;DHT22;6474;53.474;9.894;2022-12-24T14:30:00;7.90;93.60
12819;DHT22;6474;53.474;9.894;2022-12-24T14:32:33;7.90;93.60
12819;DHT22;6474;53.474;9.894;2022-12-24T14:35:14;7.80;93.50
12819;DHT22;6474;53.474;9.894;2022-12-24T14:37:45;7.80;93.60
12819;DHT22;6474;53.474;9.894;2022-12-24T14:40:15;7.80;93.70
12819;DHT22;6474;53.474;9.894;2022-12-24T14:42:52;7.80;93.70
12819;DHT22;6474;53.474;9.894;2022-12-24T14:45:28;7.70;93.70
12819;DHT22;6474;53.474;9.894;2022-12-24T14:48:04;7.70;93.70
12819;DHT22;6474;53.474;9.894;2022-12-24T14:50:46;7.70;93.60
12819;DHT22;6474;53.474;9.894;2022-12-24T14:53:22;7.70;93.60
12819;DHT22;6474;53.474;9.894;2022-12-24T14:55:52;7.70;93.50
12819;DHT22;6474;53.474;9.894;2022-12-24T14:58:25;7.60;93.50
12819;DHT22;6474;53.474;9.894;2022-12-24T15:00:55;7.60;93.50
12819;DHT22;6474;53.474;9.894;2022-12-24T15:03:24;7.50;93.50
12819;DHT22;6474;53.474;9.894;2022-12-24T15:05:55;7.50;93.60
12819;DHT22;6474;53.474;9.894;2022-12-24T15:08:28;7.50;93.60
12819;DHT22;6474;53.474;9.894;2022-12-24T15:11:00;7.50;93.60
12819;DHT22;6474;53.474;9.894;2022-12-24T15:13:33;7.50;93.60
12819;DHT22;6474;53.474;9.894;2022-12-24T15:16:05;7.50;93.60
12819;DHT22;6474;53.474;9.894;2022-12-24T15:18:36;7.50;93.60
12819;DHT22;6474;53.474;9.894;2022-12-24T15:21:07;7.50;93.60
12819;DHT22;6474;53.474;9.894;2022-12-24T15:23:46;7.50;93.60
12819;DHT22;6474;53.474;9.894;2022-12-24T15:26:20;7.60;93.70
12819;DHT22;6474;53.474;9.894;2022-12-24T15:28:51;7.50;93.60
12819;DHT22;6474;53.474;9.894;2022-12-24T15:31:28;7.60;93.70
12819;DHT22;6474;53.474;9.894;2022-12-24T15:33:57;7.60;93.60
12819;DHT22;6474;53.474;9.894;2022-12-24T15:36:28;7.70;93.70
12819;DHT22;6474;53.474;9.894;2022-12-24T15:39:00;7.70;93.60
12819;DHT22;6474;53.474;9.894;2022-12-24T15:41:35;7.70;93.60
12819;DHT22;6474;53.474;9.894;2022-12-24T15:44:05;7.80;93.60
12819;DHT22;6474;53.474;9.894;2022-12-24T15:46:33;7.80;93.50
12819;DHT22;6474;53.474;9.894;2022-12-24T15:49:01;7.80;93.50
12819;DHT22;6474;53.474;9.894;2022-12-24T15:51:31;7.80;93.50
12819;DHT22;6474;53.474;9.894;2022-12-24T15:54:09;7.80;93.50
12819;DHT22;6474;53.474;9.894;2022-12-24T15:56:40;7.90;93.60
12819;DHT22;6474;53.474;9.894;2022-12-24T15:59:29;7.90;93.60
12819;DHT22;6474;53.474;9.894;2022-12-24T16:05:31;7.90;93.60
12819;DHT22;6474;53.474;9.894;2022-12-24T16:08:01;7.90;93.60
12819;DHT22;6474;53.474;9.894;2022-12-24T16:10:37;7.90;93.60
12819;DHT22;6474;53.474;9.894;2022-12-24T16:13:11;7.90;93.60
12819;DHT22;6474;53.474;9.894;2022-12-24T16:15:46;7.90;93.60
12819;DHT22;6474;53.474;9.894;2022-12-24T16:18:17;7.90;93.60
12819;DHT22;6474;53.474;9.894;2022-12-24T16:20:48;7.90;93.60
12819;DHT22;6474;53.474;9.894;2022-12-24T16:23:18;7.90;93.60
12819;DHT22;6474;53.474;9.894;2022-12-24T16:25:46;8.00;93.60
12819;DHT22;6474;53.474;9.894;2022-12-24T16:28:14;8.00;93.60
12819;DHT22;6474;53.474;9.894;2022-12-24T16:30:49;8.00;93.60
12819;DHT22;6474;53.474;9.894;2022-12-24T16:33:19;8.00;93.60
12819;DHT22;6474;53.474;9.894;2022-12-24T16:35:47;8.00;93.60
12819;DHT22;6474;53.474;9.894;2022-12-24T16:38:15;8.00;93.50